Chauncey, Illinois
Current Conditions -  °F | °C
As of 11:53 PM on Saturday 22 Nov 2014 (Local Time) from KLWV Reporting Station
Overcast Overcast  
Wind Chill: 50°   Ceiling: 10000
Heat Index: 50°   Visibility: 10mi
Dew Point: 39°   Wind: 9mph
Humidity: 66%   Direction: 170°S
Pressure: 29.97"   Gusts: NA
Location:  38.793°N, 87.8326°W
Report Text: KLWV 230553Z AUTO 17008KT 10SM SCT090 OVC100 10/04 A2997 RMK AO2 SLP149 T01000039 10133 20100 401720022 56011
Loading
Personal Weather Stations






























Interactive Weather Map New forecast layout! Learn more

10-Day Weather Forecast

Advertisements
Track Severe Weather on mobile